Time;durP1;ratioP1;P1;durP2;ratioP2;P2;SDS_P1;SDS_P2;PMS_P1;PMS_P2;Temp;Humidity;BMP_temperature;BMP_pressure;BME280_temperature;BME280_humidity;BME280_pressure;Samples;Min_cycle;Max_cycle;Signal;HPM_P1;HPM_P2
2022/11/22 00:03:18;;;;;;;55.10;28.13;;;5.10;99.90;;;;;;10332430;28;20232;-83
2022/11/22 00:08:21;;;;;;;42.43;22.70;;;4.80;99.90;;;;;;10332011;28;20264;-83
2022/11/22 00:13:23;;;;;;;52.53;28.10;;;5.30;99.90;;;;;;10333217;28;20239;-83
2022/11/22 00:18:27;;;;;;;54.27;29.60;;;4.90;99.90;;;;;;10332982;28;20665;-83
2022/11/22 00:23:29;;;;;;;31.60;19.63;;;5.90;99.90;;;;;;10333010;28;20679;-83
2022/11/22 00:28:32;;;;;;;42.03;23.40;;;5.90;99.90;;;;;;10332328;28;20259;-83
2022/11/22 00:33:34;;;;;;;31.87;18.87;;;5.60;99.90;;;;;;10332787;28;20230;-83
2022/11/22 00:38:37;;;;;;;38.27;20.77;;;6.30;99.90;;;;;;10330680;28;20700;-82
2022/11/22 00:43:39;;;;;;;41.67;23.97;;;6.40;99.90;;;;;;10331591;28;20699;-83
2022/11/22 00:48:42;;;;;;;36.70;20.90;;;6.60;99.90;;;;;;10332287;28;20235;-83
2022/11/22 00:53:44;;;;;;;61.50;27.80;;;6.30;99.90;;;;;;10331946;28;20232;-83
2022/11/22 00:58:47;;;;;;;50.43;27.07;;;6.20;99.90;;;;;;10330641;28;20200;-83
2022/11/22 01:03:49;;;;;;;35.20;20.73;;;6.30;99.90;;;;;;10331634;28;20237;-83
2022/11/22 01:08:52;;;;;;;39.80;22.63;;;6.60;99.90;;;;;;10330402;28;20265;-83
2022/11/22 01:13:54;;;;;;;40.93;23.03;;;7.20;99.90;;;;;;10331157;28;20620;-83
2022/11/22 01:18:57;;;;;;;33.37;19.33;;;7.30;99.90;;;;;;10329405;28;20235;-83
2022/11/22 01:24:00;;;;;;;60.87;33.00;;;6.40;99.90;;;;;;10331118;28;20255;-83
2022/11/22 01:29:03;;;;;;;33.53;21.57;;;6.50;99.90;;;;;;10330690;28;20230;-83
2022/11/22 01:34:05;;;;;;;35.67;19.57;;;6.60;99.90;;;;;;10330249;28;20232;-83
2022/11/22 01:39:08;;;;;;;31.53;18.50;;;6.30;99.90;;;;;;10330594;28;20239;-83
2022/11/22 01:44:20;;;;;;;30.50;17.03;;;6.80;99.90;;;;;;10329651;28;20673;-83
2022/11/22 01:49:34;;;;;;;30.13;18.83;;;7.10;99.90;;;;;;10329119;28;20282;-83
2022/11/22 01:54:42;;;;;;;44.23;24.57;;;7.40;99.90;;;;;;10327110;28;20232;-83
2022/11/22 01:59:52;;;;;;;27.47;16.73;;;6.50;99.90;;;;;;10328263;28;20315;-83
2022/11/22 02:04:57;;;;;;;25.77;16.27;;;6.10;99.90;;;;;;10328453;28;20310;-83
2022/11/22 02:09:59;;;;;;;31.57;19.13;;;6.30;99.90;;;;;;10327964;28;20330;-83
2022/11/22 02:15:03;;;;;;;28.63;17.07;;;6.50;99.90;;;;;;10311708;28;20213;-83
2022/11/22 02:20:06;;;;;;;35.03;19.43;;;7.20;99.90;;;;;;10327704;28;20264;-83
2022/11/22 02:25:26;;;;;;;23.57;14.33;;;7.40;99.90;;;;;;10328289;28;20255;-83
2022/11/22 02:30:29;;;;;;;30.53;17.13;;;7.60;99.90;;;;;;10328263;28;20232;-83
2022/11/22 02:35:32;;;;;;;29.20;17.47;;;7.80;99.90;;;;;;10328355;28;20259;-83
2022/11/22 02:41:01;;;;;;;24.07;15.87;;;7.70;99.90;;;;;;10327899;28;20235;-83
2022/11/22 02:46:05;;;;;;;26.57;15.63;;;7.70;99.90;;;;;;10359163;28;20854;-84
2022/11/22 02:51:08;;;;;;;30.17;16.77;;;7.40;99.90;;;;;;10327670;28;20357;-84
2022/11/22 02:56:10;;;;;;;36.20;20.93;;;7.10;99.90;;;;;;10327817;28;20652;-83
2022/11/22 03:01:13;;;;;;;24.87;15.10;;;6.10;99.90;;;;;;10326142;28;20266;-84
2022/11/22 03:06:16;;;;;;;25.70;15.90;;;6.60;99.90;;;;;;10334693;28;20284;-83
2022/11/22 03:11:18;;;;;;;29.80;17.77;;;6.80;99.90;;;;;;10335254;28;21063;-83
2022/11/22 03:16:20;;;;;;;27.87;16.57;;;7.10;99.90;;;;;;10334368;28;20338;-83
2022/11/22 03:21:23;;;;;;;28.20;16.30;;;7.00;99.90;;;;;;10334434;28;20239;-83
2022/11/22 03:26:25;;;;;;;31.20;16.50;;;7.10;99.90;;;;;;10335284;28;20260;-83
2022/11/22 03:31:28;;;;;;;29.80;18.20;;;7.50;99.90;;;;;;10335109;28;20290;-83
2022/11/22 03:36:30;;;;;;;26.27;15.23;;;7.60;99.90;;;;;;10334234;28;20246;-83
2022/11/22 03:41:33;;;;;;;25.33;13.77;;;7.50;99.90;;;;;;10333204;28;20305;-83
2022/11/22 03:46:36;;;;;;;23.13;14.20;;;7.60;99.90;;;;;;10334390;28;20715;-83
2022/11/22 03:51:38;;;;;;;27.47;16.53;;;8.00;99.90;;;;;;10334100;28;20197;-83
2022/11/22 03:56:40;;;;;;;25.13;15.43;;;8.10;99.90;;;;;;10334203;28;20258;-83
2022/11/22 04:01:43;;;;;;;22.97;14.10;;;7.70;99.90;;;;;;10333799;28;20231;-83
2022/11/22 04:06:45;;;;;;;26.20;15.43;;;7.80;99.90;;;;;;10333704;28;20968;-83
2022/11/22 04:11:48;;;;;;;36.47;19.33;;;8.10;99.90;;;;;;10331951;28;20236;-83
2022/11/22 04:16:50;;;;;;;31.40;18.70;;;7.60;99.90;;;;;;10363484;28;20260;-83
2022/11/22 04:21:53;;;;;;;31.57;17.70;;;7.20;99.90;;;;;;10333157;28;20232;-84
2022/11/22 04:26:56;;;;;;;28.67;15.80;;;6.60;99.90;;;;;;10331235;28;20342;-84
2022/11/22 04:37:19;;;;;;;25.50;14.63;;;6.80;99.90;;;;;;10332257;28;20277;-83
2022/11/22 04:47:57;;;;;;;32.10;17.17;;;6.90;99.90;;;;;;10330934;28;20260;-84
2022/11/22 04:53:00;;;;;;;44.40;21.50;;;7.30;99.90;;;;;;10331795;28;20228;-83
2022/11/22 04:58:02;;;;;;;32.80;17.93;;;6.90;99.90;;;;;;10346271;28;20249;-83
2022/11/22 05:03:06;;;;;;;34.23;16.00;;;7.50;99.90;;;;;;10331068;28;20232;-83
2022/11/22 05:08:08;;;;;;;25.50;15.00;;;7.40;99.90;;;;;;10330856;28;20260;-83
2022/11/22 05:13:11;;;;;;;28.90;15.77;;;7.40;99.90;;;;;;10330756;28;20240;-83
2022/11/22 05:18:13;;;;;;;34.63;18.37;;;8.00;99.90;;;;;;10330384;28;20314;-83
2022/11/22 05:28:38;;;;;;;26.07;13.20;;;7.90;99.90;;;;;;10327461;28;20247;-83
2022/11/22 05:33:42;;;;;;;40.17;20.00;;;7.50;99.90;;;;;;10329518;28;20243;-84
2022/11/22 05:38:44;;;;;;;23.87;14.87;;;7.60;99.90;;;;;;10327837;28;20354;-83
2022/11/22 05:43:47;;;;;;;30.33;15.73;;;7.60;99.90;;;;;;10329365;28;20243;-84
2022/11/22 05:48:49;;;;;;;36.10;19.83;;;7.80;99.90;;;;;;10329025;28;20283;-84
2022/11/22 05:53:52;;;;;;;31.57;17.10;;;7.60;99.90;;;;;;10329306;28;20230;-84
2022/11/22 05:58:54;;;;;;;44.13;22.57;;;7.80;99.90;;;;;;10359320;28;20216;-84
2022/11/22 06:03:57;;;;;;;27.17;15.83;;;7.70;99.90;;;;;;10320605;28;20304;-84
2022/11/22 06:08:59;;;;;;;33.27;17.80;;;7.80;99.90;;;;;;10296473;28;20259;-85
2022/11/22 06:14:02;;;;;;;32.00;17.70;;;6.80;99.90;;;;;;10327147;28;20211;-85
2022/11/22 06:19:04;;;;;;;40.83;21.00;;;7.90;99.90;;;;;;10327374;28;20262;-86
2022/11/22 06:24:07;;;;;;;57.47;30.40;;;8.20;99.90;;;;;;10326395;28;20739;-84
2022/11/22 06:29:10;;;;;;;34.57;17.67;;;7.80;97.00;;;;;;10327298;28;20270;-85
2022/11/22 06:34:12;;;;;;;34.50;17.40;;;7.70;99.90;;;;;;10328452;28;20199;-86
2022/11/22 06:39:15;;;;;;;33.60;18.17;;;8.30;99.90;;;;;;10327911;28;20662;-86
2022/11/22 06:44:17;;;;;;;38.10;19.73;;;8.60;99.90;;;;;;10310326;28;20689;-86
2022/11/22 06:49:20;;;;;;;27.80;13.83;;;8.90;99.90;;;;;;10326761;28;20294;-86
2022/11/22 06:54:22;;;;;;;31.10;17.10;;;9.30;99.90;;;;;;10327062;28;20573;-86
2022/11/22 06:59:25;;;;;;;35.70;17.83;;;9.00;99.90;;;;;;10326787;28;20286;-86
2022/11/22 07:04:27;;;;;;;46.90;21.87;;;8.70;99.90;;;;;;10326020;28;20698;-86
2022/11/22 07:09:30;;;;;;;57.80;30.27;;;9.00;99.90;;;;;;10326276;28;20263;-86
2022/11/22 07:14:33;;;;;;;34.60;17.63;;;9.30;99.90;;;;;;10358815;28;20244;-86
2022/11/22 07:19:35;;;;;;;34.57;17.30;;;9.80;99.90;;;;;;10365537;28;20317;-86
2022/11/22 07:24:38;;;;;;;37.70;19.90;;;9.20;99.90;;;;;;10326588;28;20236;-86
2022/11/22 07:29:40;;;;;;;29.90;12.73;;;9.10;99.90;;;;;;10346102;28;20266;-86
2022/11/22 07:34:43;;;;;;;35.50;19.57;;;9.80;99.90;;;;;;10329668;28;20291;-86
2022/11/22 07:39:45;;;;;;;32.97;18.57;;;9.20;99.90;;;;;;10326846;28;20289;-86
2022/11/22 07:44:48;;;;;;;47.93;24.90;;;9.60;99.90;;;;;;10363466;28;20626;-86
2022/11/22 07:49:50;;;;;;;34.77;17.73;;;9.60;99.90;;;;;;10369574;28;20318;-87
2022/11/22 07:54:52;;;;;;;38.10;20.10;;;9.10;99.90;;;;;;10371422;28;20224;-86
2022/11/22 07:59:55;;;;;;;27.87;14.30;;;8.90;99.90;;;;;;10359449;28;20239;-86
2022/11/22 08:04:57;;;;;;;32.40;16.03;;;9.50;99.90;;;;;;10333696;28;20195;-86
2022/11/22 08:10:00;;;;;;;49.23;24.83;;;9.30;99.90;;;;;;10334229;28;20252;-87
2022/11/22 08:15:03;;;;;;;28.60;16.43;;;9.20;99.90;;;;;;10333534;28;20285;-86
2022/11/22 08:20:09;;;;;;;35.30;18.90;;;9.20;99.90;;;;;;10333434;28;20656;-86
2022/11/22 08:25:12;;;;;;;32.10;18.13;;;9.00;99.90;;;;;;10333574;28;20279;-86
2022/11/22 08:30:14;;;;;;;22.87;13.03;;;8.90;99.90;;;;;;10331865;28;20778;-86
2022/11/22 08:35:17;;;;;;;23.57;13.47;;;9.30;99.90;;;;;;10332442;28;20226;-86
2022/11/22 08:40:19;;;;;;;22.80;12.80;;;9.20;99.90;;;;;;10338880;28;20673;-86
2022/11/22 08:45:22;;;;;;;24.30;14.90;;;9.50;99.90;;;;;;10333117;28;20355;-86
2022/11/22 08:50:24;;;;;;;28.03;16.07;;;9.40;99.90;;;;;;10332584;28;20304;-86
2022/11/22 08:55:27;;;;;;;30.03;17.07;;;9.40;99.90;;;;;;10368781;28;20224;-86
2022/11/22 09:00:30;;;;;;;26.00;14.40;;;9.30;99.90;;;;;;10335753;28;20285;-86
2022/11/22 09:05:35;;;;;;;23.73;13.27;;;9.50;99.90;;;;;;10367993;28;20239;-86
2022/11/22 09:10:38;;;;;;;31.53;18.77;;;9.70;99.90;;;;;;10316901;28;20205;-86
2022/11/22 09:15:40;;;;;;;22.87;13.73;;;9.90;99.90;;;;;;10329438;28;20223;-86
2022/11/22 09:20:43;;;;;;;41.50;24.53;;;9.70;99.90;;;;;;10331360;28;20208;-85
2022/11/22 09:25:45;;;;;;;31.27;15.90;;;9.20;98.90;;;;;;10329256;28;20283;-85
2022/11/22 09:30:47;;;;;;;29.13;16.60;;;9.10;99.90;;;;;;10345383;28;20217;-86
2022/11/22 09:35:50;;;;;;;25.67;15.07;;;8.70;99.90;;;;;;10330580;28;20261;-86
2022/11/22 09:40:53;;;;;;;26.53;14.27;;;8.90;99.90;;;;;;10330931;28;20233;-86
2022/11/22 09:45:58;;;;;;;44.67;24.47;;;9.20;99.90;;;;;;10329310;28;22079;-86
2022/11/22 09:51:13;;;;;;;50.50;27.77;;;8.70;99.90;;;;;;10329027;28;20228;-86
2022/11/22 09:56:18;;;;;;;28.60;15.30;;;8.50;99.90;;;;;;10329736;28;20261;-86
2022/11/22 10:01:43;;;;;;;25.20;15.83;;;8.80;99.90;;;;;;10305629;28;20238;-86
2022/11/22 10:07:14;;;;;;;26.03;14.67;;;9.10;99.90;;;;;;10332139;28;20286;-85
2022/11/22 10:12:26;;;;;;;28.17;16.63;;;9.30;99.90;;;;;;10311336;28;20559;-85
2022/11/22 10:17:50;;;;;;;37.70;21.73;;;9.50;99.90;;;;;;10328946;28;20253;-85
2022/11/22 10:22:57;;;;;;;58.37;33.90;;;9.30;99.90;;;;;;10326434;28;20238;-85
2022/11/22 10:28:23;;;;;;;32.00;17.30;;;9.30;99.90;;;;;;10349573;28;20251;-85
2022/11/22 10:33:39;;;;;;;26.87;15.77;;;9.00;99.90;;;;;;10328529;28;20227;-84
2022/11/22 10:39:16;;;;;;;28.90;17.00;;;9.30;99.90;;;;;;10377293;28;20916;-84
2022/11/22 10:44:30;;;;;;;23.73;14.77;;;9.60;99.90;;;;;;10368388;28;20645;-85
2022/11/22 10:49:45;;;;;;;25.87;15.23;;;9.60;99.90;;;;;;10374690;28;20239;-84
2022/11/22 10:55:10;;;;;;;34.77;17.23;;;9.40;99.90;;;;;;10353603;28;20626;-84
2022/11/22 11:00:24;;;;;;;29.67;15.27;;;9.20;99.90;;;;;;10332620;28;20697;-84
2022/11/22 11:05:46;;;;;;;22.10;13.13;;;9.60;99.90;;;;;;10326544;28;20234;-84
2022/11/22 11:11:08;;;;;;;27.17;14.83;;;9.70;99.90;;;;;;10324171;28;20251;-84
2022/11/22 11:16:17;;;;;;;30.77;14.37;;;9.50;99.90;;;;;;10325628;28;20267;-84
2022/11/22 11:21:19;;;;;;;33.03;17.60;;;9.30;99.90;;;;;;10326002;28;20201;-84
2022/11/22 11:26:27;;;;;;;27.27;14.53;;;9.60;99.90;;;;;;10333671;28;20243;-84
2022/11/22 11:31:42;;;;;;;26.83;14.07;;;9.70;99.90;;;;;;10320538;28;20233;-84
2022/11/22 11:36:45;;;;;;;26.37;12.27;;;10.20;99.90;;;;;;10292921;28;20212;-84
2022/11/22 11:41:48;;;;;;;29.73;16.90;;;9.70;99.90;;;;;;10333530;28;20237;-84
2022/11/22 11:46:51;;;;;;;31.20;16.93;;;9.80;99.90;;;;;;10332990;28;20602;-84
2022/11/22 11:51:56;;;;;;;30.97;15.80;;;9.30;99.90;;;;;;10334428;28;20603;-84
2022/11/22 11:57:02;;;;;;;28.57;14.03;;;9.40;99.90;;;;;;10330287;28;20298;-83
2022/11/22 12:02:20;;;;;;;27.83;14.33;;;9.60;99.90;;;;;;10323679;28;20229;-83
2022/11/22 12:07:25;;;;;;;25.87;13.80;;;9.70;99.90;;;;;;10332288;28;20728;-84
2022/11/22 12:12:37;;;;;;;30.27;16.80;;;9.90;99.90;;;;;;10333629;28;20205;-84
2022/11/22 12:17:56;;;;;;;24.63;12.90;;;10.00;99.90;;;;;;10331560;28;20235;-84
2022/11/22 12:23:11;;;;;;;45.57;21.20;;;9.80;99.90;;;;;;10333413;28;20235;-83
2022/11/22 12:28:22;;;;;;;26.00;12.43;;;9.60;99.90;;;;;;10333111;28;20251;-84
2022/11/22 12:33:34;;;;;;;44.43;22.70;;;9.90;99.90;;;;;;10333366;28;20282;-83
2022/11/22 12:38:42;;;;;;;31.27;16.80;;;9.40;99.90;;;;;;10331665;28;20267;-84
2022/11/22 12:43:57;;;;;;;36.33;18.73;;;9.50;99.90;;;;;;10363743;28;20231;-83
2022/11/22 12:49:14;;;;;;;30.63;16.63;;;9.20;99.90;;;;;;10331316;28;20310;-83
2022/11/22 12:54:22;;;;;;;28.47;14.47;;;9.10;99.90;;;;;;10330634;28;20679;-83
2022/11/22 12:59:41;;;;;;;21.83;12.50;;;9.00;99.90;;;;;;10330539;28;20656;-83
2022/11/22 13:04:58;;;;;;;35.80;17.97;;;9.20;99.90;;;;;;10329604;28;20676;-83
2022/11/22 13:10:07;;;;;;;37.57;17.67;;;9.30;99.90;;;;;;10363646;28;20316;-83
2022/11/22 13:15:22;;;;;;;34.43;17.10;;;8.80;99.90;;;;;;10331843;28;20244;-83
2022/11/22 13:20:38;;;;;;;32.40;17.47;;;8.80;99.90;;;;;;10330070;28;20287;-83
2022/11/22 13:25:53;;;;;;;32.77;18.33;;;9.00;99.90;;;;;;10330265;28;20213;-83
2022/11/22 13:31:09;;;;;;;34.97;18.17;;;9.00;99.90;;;;;;10331094;28;20715;-83
2022/11/22 13:36:25;;;;;;;48.13;23.10;;;9.20;99.90;;;;;;10329316;28;20233;-83
2022/11/22 13:41:34;;;;;;;32.10;18.67;;;8.90;99.90;;;;;;10331441;28;20662;-83
2022/11/22 13:46:48;;;;;;;61.50;34.10;;;9.40;99.90;;;;;;10329065;28;20240;-83
2022/11/22 13:51:57;;;;;;;51.00;34.13;;;9.10;99.90;;;;;;10312656;28;20623;-83
2022/11/22 13:57:03;;;;;;;41.17;23.30;;;8.80;99.90;;;;;;10330379;28;20295;-83
2022/11/22 14:02:21;;;;;;;33.10;17.90;;;8.90;99.90;;;;;;10328470;28;20204;-83
2022/11/22 14:07:31;;;;;;;33.80;18.67;;;8.90;99.90;;;;;;10328813;28;20737;-83
2022/11/22 14:12:53;;;;;;;37.10;19.80;;;8.90;99.90;;;;;;10328742;28;20224;-83
2022/11/22 14:17:58;;;;;;;38.40;21.23;;;8.60;99.90;;;;;;10328012;28;20326;-83
2022/11/22 14:23:12;;;;;;;35.40;19.10;;;8.60;99.90;;;;;;10301618;28;20206;-83
2022/11/22 14:28:24;;;;;;;35.27;18.80;;;8.40;99.90;;;;;;10319964;28;20257;-84
2022/11/22 14:33:28;;;;;;;24.93;15.10;;;8.60;99.90;;;;;;10338279;28;20272;-84
2022/11/22 14:38:35;;;;;;;30.97;18.00;;;8.60;99.90;;;;;;10360532;28;20631;-84
2022/11/22 14:43:39;;;;;;;28.93;17.50;;;9.00;99.90;;;;;;10327343;28;20272;-84
2022/11/22 14:48:49;;;;;;;31.30;19.37;;;9.30;99.90;;;;;;10360379;28;20696;-83
2022/11/22 14:54:04;;;;;;;28.67;17.07;;;9.30;99.90;;;;;;10329438;28;20192;-83
2022/11/22 14:59:32;;;;;;;27.13;15.40;;;9.20;99.90;;;;;;10329286;28;20204;-83
2022/11/22 15:04:37;;;;;;;39.57;19.33;;;8.80;99.90;;;;;;10344557;28;20211;-84
2022/11/22 15:10:25;;;;;;;30.07;17.33;;;9.00;99.90;;;;;;10329667;28;20222;-84
2022/11/22 15:15:30;;;;;;;38.87;21.97;;;8.80;99.90;;;;;;10329029;28;20201;-84
2022/11/22 15:20:54;;;;;;;39.43;22.73;;;8.80;99.90;;;;;;10328464;28;20210;-83
2022/11/22 15:26:18;;;;;;;31.17;17.87;;;8.60;99.90;;;;;;10327904;28;20215;-84
2022/11/22 15:31:41;;;;;;;50.63;33.73;;;8.30;99.90;;;;;;10322711;28;20266;-85
2022/11/22 15:37:19;;;;;;;32.63;19.10;;;8.50;99.90;;;;;;10326896;28;20205;-84
2022/11/22 15:43:00;;;;;;;32.83;18.33;;;8.60;99.90;;;;;;9981209;28;10000154;-85
2022/11/22 15:48:38;;;;;;;40.47;19.53;;;8.70;99.90;;;;;;10324139;28;20317;-82
2022/11/22 15:54:17;;;;;;;33.40;17.93;;;8.70;99.90;;;;;;10317086;28;20590;-81
2022/11/22 15:59:43;;;;;;;27.57;15.90;;;9.00;99.90;;;;;;10323242;28;20236;-82
2022/11/22 16:05:11;;;;;;;39.53;21.90;;;9.10;99.90;;;;;;10323313;28;20220;-82
2022/11/22 16:10:41;;;;;;;37.83;21.77;;;9.20;99.90;;;;;;10321516;28;20311;-82
2022/11/22 16:15:44;;;;;;;23.50;15.33;;;8.90;99.90;;;;;;10326775;28;20260;-82
2022/11/22 16:21:00;;;;;;;30.57;18.53;;;9.00;99.90;;;;;;10330797;28;20240;-82
2022/11/22 16:26:23;;;;;;;50.57;26.17;;;9.10;99.90;;;;;;10332587;28;20667;-82
2022/11/22 16:31:30;;;;;;;36.23;20.80;;;8.80;99.90;;;;;;10291240;28;20284;-82
2022/11/22 16:36:33;;;;;;;42.70;23.97;;;8.50;99.90;;;;;;10290854;28;20280;-82
2022/11/22 16:41:35;;;;;;;42.50;24.20;;;8.20;99.90;;;;;;10324735;28;20251;-82
2022/11/22 16:46:38;;;;;;;25.37;16.03;;;8.60;99.90;;;;;;10336100;28;20212;-82
2022/11/22 16:51:45;;;;;;;28.30;16.90;;;8.80;99.90;;;;;;10336721;28;20257;-82
2022/11/22 16:56:47;;;;;;;32.97;18.97;;;8.70;99.90;;;;;;10338225;28;20201;-81
2022/11/22 17:01:50;;;;;;;30.70;16.67;;;8.60;99.90;;;;;;10336208;28;20263;-81
2022/11/22 17:06:52;;;;;;;40.50;21.57;;;8.90;99.90;;;;;;10334174;28;20212;-82
2022/11/22 17:11:55;;;;;;;50.50;29.73;;;9.00;99.90;;;;;;10331468;28;20271;-83
2022/11/22 17:16:57;;;;;;;39.60;22.23;;;9.00;99.90;;;;;;10358051;28;20298;-82
2022/11/22 17:22:00;;;;;;;46.20;23.97;;;8.90;99.90;;;;;;10352052;28;20678;-82
2022/11/22 17:27:02;;;;;;;33.40;18.63;;;9.10;99.90;;;;;;10307990;28;20584;-83
2022/11/22 17:32:08;;;;;;;38.80;21.40;;;9.20;99.90;;;;;;10325876;28;20282;-82
2022/11/22 17:37:12;;;;;;;43.10;24.40;;;9.20;99.90;;;;;;10328692;28;20196;-82
2022/11/22 17:42:16;;;;;;;34.10;19.53;;;9.30;99.90;;;;;;10351428;28;20207;-83
2022/11/22 17:47:18;;;;;;;39.00;21.53;;;9.10;99.90;;;;;;10356740;28;20634;-82
2022/11/22 17:52:20;;;;;;;66.50;37.00;;;9.20;99.90;;;;;;10305545;28;20224;-83
2022/11/22 17:57:23;;;;;;;44.97;23.73;;;9.20;99.90;;;;;;10329043;28;20226;-83
2022/11/22 18:02:25;;;;;;;35.40;21.37;;;8.90;99.90;;;;;;10330184;28;20242;-83
2022/11/22 18:07:28;;;;;;;40.70;22.17;;;9.20;99.90;;;;;;10325108;28;20212;-83
2022/11/22 18:12:33;;;;;;;34.90;19.83;;;9.30;99.90;;;;;;10289341;28;20273;-82
2022/11/22 18:17:43;;;;;;;46.60;25.40;;;9.00;99.90;;;;;;10325071;28;20656;-83
2022/11/22 18:22:46;;;;;;;50.57;30.53;;;8.80;99.90;;;;;;10328336;28;20287;-82
2022/11/22 18:27:48;;;;;;;48.97;26.63;;;8.90;99.90;;;;;;10359178;28;20237;-82
2022/11/22 18:32:51;;;;;;;63.10;36.23;;;9.00;99.90;;;;;;10366865;28;20204;-82
2022/11/22 18:37:53;;;;;;;37.57;22.30;;;8.80;99.90;;;;;;10329678;28;20197;-82
2022/11/22 18:42:57;;;;;;;56.30;30.50;;;8.60;99.90;;;;;;10327892;28;20221;-82
2022/11/22 18:48:00;;;;;;;54.63;30.10;;;8.60;99.90;;;;;;10325422;28;20233;-82
2022/11/22 18:53:02;;;;;;;51.27;29.13;;;8.90;99.90;;;;;;10316029;28;20219;-83
2022/11/22 18:58:05;;;;;;;36.40;20.83;;;8.70;99.90;;;;;;10294154;28;20220;-82
2022/11/22 19:03:10;;;;;;;40.77;23.03;;;8.70;99.90;;;;;;10326380;28;20255;-82
2022/11/22 19:08:12;;;;;;;44.80;24.30;;;8.80;99.90;;;;;;10326954;28;20240;-82
2022/11/22 19:13:15;;;;;;;42.13;21.93;;;9.00;99.90;;;;;;10324725;28;20571;-83
2022/11/22 19:18:19;;;;;;;45.90;25.53;;;8.60;99.90;;;;;;10327685;28;20260;-83
2022/11/22 19:23:21;;;;;;;39.23;21.43;;;8.90;99.90;;;;;;10328331;28;20219;-83
2022/11/22 19:28:27;;;;;;;55.40;28.07;;;9.00;99.90;;;;;;10328126;28;20300;-83
2022/11/22 19:33:29;;;;;;;49.50;29.73;;;8.90;99.90;;;;;;10328756;28;20258;-83
2022/11/22 19:38:32;;;;;;;57.80;34.00;;;8.80;99.90;;;;;;10326776;28;20205;-84
2022/11/22 19:43:35;;;;;;;53.13;29.73;;;8.80;99.90;;;;;;10359276;28;20213;-83
2022/11/22 19:48:38;;;;;;;46.77;26.77;;;8.60;99.90;;;;;;10335916;28;20245;-83
2022/11/22 19:53:52;;;;;;;52.70;28.87;;;8.50;99.90;;;;;;10334265;28;20231;-83
2022/11/22 19:58:56;;;;;;;55.80;29.23;;;8.60;99.90;;;;;;10340937;28;20274;-83
2022/11/22 20:04:02;;;;;;;50.13;27.90;;;8.60;99.90;;;;;;10333804;28;20248;-83
2022/11/22 20:09:10;;;;;;;53.67;30.57;;;8.20;99.90;;;;;;10332602;28;20252;-82
2022/11/22 20:14:12;;;;;;;55.50;28.70;;;8.10;99.90;;;;;;10330582;28;20260;-82
2022/11/22 20:19:15;;;;;;;46.03;25.60;;;8.00;99.90;;;;;;10333904;28;20260;-83
2022/11/22 20:24:17;;;;;;;54.87;30.30;;;8.10;99.90;;;;;;10323108;28;20679;-83
2022/11/22 20:29:21;;;;;;;55.00;30.77;;;8.00;99.90;;;;;;10337804;28;20294;-83
2022/11/22 20:34:24;;;;;;;54.23;31.63;;;7.70;99.90;;;;;;10318019;28;20216;-83
2022/11/22 20:39:27;;;;;;;47.87;27.87;;;7.50;99.90;;;;;;10350194;28;20741;-83
2022/11/22 20:44:32;;;;;;;51.13;28.13;;;7.70;99.90;;;;;;10332992;28;20239;-83
2022/11/22 20:49:35;;;;;;;41.33;24.73;;;7.70;99.90;;;;;;10334657;28;20269;-83
2022/11/22 20:54:43;;;;;;;47.77;26.47;;;7.70;99.90;;;;;;10334507;28;20258;-83
2022/11/22 20:59:46;;;;;;;38.53;22.23;;;7.80;99.90;;;;;;10332779;28;20259;-83
2022/11/22 21:04:48;;;;;;;52.43;28.37;;;8.00;99.90;;;;;;10331801;28;20751;-83
2022/11/22 21:09:51;;;;;;;57.57;32.30;;;8.00;99.90;;;;;;10331104;28;20224;-82
2022/11/22 21:14:53;;;;;;;55.00;28.27;;;7.50;99.90;;;;;;10332731;28;20211;-82
2022/11/22 21:19:56;;;;;;;55.23;27.30;;;7.40;99.90;;;;;;10364411;28;20350;-83
2022/11/22 21:24:58;;;;;;;50.30;27.37;;;7.90;99.90;;;;;;10364845;28;20287;-83
2022/11/22 21:30:00;;;;;;;51.80;27.70;;;8.40;99.90;;;;;;10332937;28;20241;-83
2022/11/22 21:35:03;;;;;;;59.60;33.03;;;8.10;99.90;;;;;;10364059;28;20311;-83
2022/11/22 21:40:08;;;;;;;55.53;28.70;;;7.80;99.90;;;;;;10332873;28;20282;-82
2022/11/22 21:45:10;;;;;;;44.97;26.13;;;7.10;99.90;;;;;;10332424;28;20207;-82
2022/11/22 21:50:14;;;;;;;49.50;27.43;;;6.80;99.90;;;;;;10332731;28;20298;-83
2022/11/22 21:55:16;;;;;;;66.77;36.03;;;6.80;99.90;;;;;;10332429;28;20201;-82
2022/11/22 22:00:19;;;;;;;62.43;32.90;;;6.50;99.90;;;;;;10331819;28;20767;-82
2022/11/22 22:05:21;;;;;;;51.43;28.87;;;6.90;99.90;;;;;;10332205;28;20278;-83
2022/11/22 22:10:24;;;;;;;48.60;28.63;;;7.40;99.90;;;;;;10331844;28;20573;-83
2022/11/22 22:15:26;;;;;;;41.50;22.27;;;7.50;99.90;;;;;;10330469;28;20200;-83
2022/11/22 22:20:28;;;;;;;42.23;23.30;;;8.00;99.90;;;;;;10329036;28;20312;-83
2022/11/22 22:25:32;;;;;;;54.07;28.17;;;8.10;99.90;;;;;;10327422;28;20546;-82
2022/11/22 22:30:34;;;;;;;39.70;23.13;;;7.80;99.90;;;;;;10328422;28;20252;-82
2022/11/22 22:35:37;;;;;;;55.87;30.33;;;8.20;99.90;;;;;;10329305;28;20613;-82
2022/11/22 22:40:39;;;;;;;50.23;26.83;;;8.10;99.90;;;;;;10326979;28;20229;-82
2022/11/22 22:45:43;;;;;;;59.63;31.90;;;8.00;99.90;;;;;;10328602;28;20227;-82
2022/11/22 22:50:45;;;;;;;47.70;28.20;;;7.90;99.90;;;;;;10328210;28;20248;-82
2022/11/22 22:55:54;;;;;;;47.30;26.20;;;7.30;99.90;;;;;;10303170;28;20205;-82
2022/11/22 23:01:14;;;;;;;54.30;28.37;;;8.10;99.90;;;;;;10287837;28;20263;-82
2022/11/22 23:06:17;;;;;;;57.40;29.20;;;7.90;99.90;;;;;;10348296;28;20255;-82
2022/11/22 23:12:09;;;;;;;69.60;34.33;;;8.20;99.90;;;;;;10327688;28;20249;-82
2022/11/22 23:16:45;;;;;;;47.67;25.00;;;8.10;99.90;;;;;;10326753;28;20252;-82
2022/11/22 23:21:48;;;;;;;70.67;36.30;;;8.20;99.90;;;;;;10332582;28;20232;-82
2022/11/22 23:26:51;;;;;;;35.63;21.43;;;7.90;99.90;;;;;;10335640;28;20240;-82
2022/11/22 23:31:53;;;;;;;41.57;22.87;;;8.40;99.90;;;;;;10335137;28;20255;-82
2022/11/22 23:36:55;;;;;;;48.83;26.03;;;8.70;99.90;;;;;;10334605;28;20224;-82
2022/11/22 23:41:58;;;;;;;67.73;34.33;;;8.70;99.90;;;;;;10333604;28;20248;-82
2022/11/22 23:47:00;;;;;;;52.60;28.73;;;8.30;99.90;;;;;;10333040;28;20235;-82
2022/11/22 23:52:03;;;;;;;52.50;28.37;;;7.60;99.90;;;;;;10334745;28;20256;-82
2022/11/22 23:57:05;;;;;;;48.53;26.33;;;7.50;99.90;;;;;;10332984;28;20585;-82
